createdAt,value
2018-04-06T00:00:49.381Z,99.90
2018-04-06T00:03:16.957Z,99.90
2018-04-06T00:05:44.518Z,99.90
2018-04-06T00:08:12.114Z,99.90
2018-04-06T00:10:40.466Z,99.90
2018-04-06T00:13:08.046Z,99.90
2018-04-06T00:15:35.620Z,99.90
2018-04-06T00:18:03.192Z,99.90
2018-04-06T00:20:30.759Z,99.90
2018-04-06T00:22:59.099Z,99.90
2018-04-06T00:25:26.667Z,99.90
2018-04-06T00:27:54.246Z,99.90
2018-04-06T00:30:21.860Z,99.90
2018-04-06T00:32:49.429Z,99.90
2018-04-06T00:35:16.977Z,99.90
2018-04-06T00:37:44.553Z,99.90
2018-04-06T00:40:12.118Z,99.90
2018-04-06T00:42:39.686Z,99.90
2018-04-06T00:45:07.258Z,99.90
2018-04-06T00:47:34.855Z,99.90
2018-04-06T00:50:02.429Z,99.90
2018-04-06T00:52:29.986Z,99.90
2018-04-06T00:54:57.590Z,99.90
2018-04-06T00:57:25.939Z,99.90
2018-04-06T00:59:53.576Z,99.90
2018-04-06T01:02:21.893Z,99.90
2018-04-06T01:04:49.505Z,99.90
2018-04-06T01:07:17.852Z,99.90
2018-04-06T01:09:45.426Z,99.90
2018-04-06T01:12:13.014Z,99.90
2018-04-06T01:14:41.354Z,99.90
2018-04-06T01:17:08.941Z,99.90
2018-04-06T01:19:36.505Z,99.90
2018-04-06T01:22:04.201Z,99.90
2018-04-06T01:24:31.772Z,99.90
2018-04-06T01:27:00.088Z,99.90
2018-04-06T01:29:28.412Z,99.90
2018-04-06T01:31:56.740Z,99.90
2018-04-06T01:34:24.317Z,99.90
2018-04-06T01:36:51.884Z,99.90
2018-04-06T01:39:19.438Z,99.90
2018-04-06T01:41:47.009Z,99.90
2018-04-06T01:44:15.370Z,99.90
2018-04-06T01:46:42.949Z,99.90
2018-04-06T01:49:11.267Z,99.90
2018-04-06T01:51:38.856Z,99.90
2018-04-06T01:54:06.472Z,99.90
2018-04-06T01:56:34.041Z,99.90
2018-04-06T01:59:01.616Z,99.90
2018-04-06T02:01:29.196Z,99.90
2018-04-06T02:03:56.773Z,99.90
2018-04-06T02:06:24.342Z,99.90
2018-04-06T02:08:52.047Z,99.90
2018-04-06T02:11:19.585Z,99.90
2018-04-06T02:13:47.912Z,99.90
2018-04-06T02:16:15.477Z,99.90
2018-04-06T02:18:43.079Z,99.90
2018-04-06T02:21:11.467Z,99.90
2018-04-06T02:23:39.814Z,99.90
2018-04-06T02:26:07.380Z,99.90
2018-04-06T02:28:34.953Z,99.90
2018-04-06T02:31:02.530Z,99.90
2018-04-06T02:33:30.878Z,99.90
2018-04-06T02:35:58.467Z,99.90
2018-04-06T02:38:26.821Z,99.90
2018-04-06T02:40:54.384Z,99.90
2018-04-06T02:43:21.947Z,99.90
2018-04-06T02:45:49.542Z,99.90
2018-04-06T02:48:17.105Z,99.90
2018-04-06T02:50:44.703Z,99.90
2018-04-06T02:53:12.256Z,99.90
2018-04-06T02:55:39.845Z,99.90
2018-04-06T02:58:07.417Z,99.90
2018-04-06T03:00:35.050Z,99.90
2018-04-06T03:03:02.745Z,99.90
2018-04-06T03:05:30.260Z,99.90
2018-04-06T03:07:57.829Z,99.90
2018-04-06T03:10:25.441Z,99.90
2018-04-06T03:12:53.850Z,99.90
2018-04-06T03:15:21.410Z,99.90
2018-04-06T03:17:49.054Z,99.90
2018-04-06T03:20:16.616Z,99.90
2018-04-06T03:22:44.955Z,99.90
2018-04-06T03:25:12.526Z,99.90
2018-04-06T03:27:40.101Z,99.90
2018-04-06T03:30:08.473Z,99.90
2018-04-06T03:32:36.056Z,99.90
2018-04-06T03:35:04.368Z,99.90
2018-04-06T03:37:31.934Z,99.90
2018-04-06T03:39:59.504Z,99.90
2018-04-06T03:42:27.087Z,99.90
2018-04-06T03:44:54.647Z,99.90
2018-04-06T03:47:22.551Z,99.90
2018-04-06T03:49:50.124Z,99.90
2018-04-06T03:52:17.701Z,99.90
2018-04-06T03:54:45.307Z,99.90
2018-04-06T03:57:12.881Z,99.90
2018-04-06T03:59:41.214Z,99.90
2018-04-06T04:02:08.790Z,99.90
2018-04-06T04:04:36.350Z,99.90
2018-04-06T04:07:03.909Z,99.90
2018-04-06T04:09:31.470Z,99.90
2018-04-06T04:11:59.036Z,99.90
2018-04-06T04:14:26.597Z,99.90
2018-04-06T04:16:54.142Z,99.90
2018-04-06T04:19:21.729Z,99.90
2018-04-06T04:21:49.290Z,99.90
2018-04-06T04:24:16.841Z,99.90
2018-04-06T04:26:44.534Z,99.90
2018-04-06T04:29:12.857Z,99.90
2018-04-06T04:31:40.441Z,99.90
2018-04-06T04:34:08.001Z,99.90
2018-04-06T04:36:35.586Z,99.90
2018-04-06T04:39:03.938Z,99.90
2018-04-06T04:41:31.523Z,99.90
2018-04-06T04:43:59.858Z,99.90
2018-04-06T04:46:27.447Z,99.90
2018-04-06T04:48:55.043Z,99.90
2018-04-06T04:51:22.614Z,99.90
2018-04-06T04:53:50.387Z,99.90
2018-04-06T04:56:17.960Z,99.90
2018-04-06T04:58:45.559Z,99.90
2018-04-06T05:01:13.139Z,99.90
2018-04-06T05:03:41.486Z,99.90
2018-04-06T05:06:09.045Z,99.90
2018-04-06T05:08:36.619Z,99.90
2018-04-06T05:11:04.322Z,99.90
2018-04-06T05:13:31.917Z,99.90
2018-04-06T05:15:59.464Z,99.90
2018-04-06T05:18:27.051Z,99.90
2018-04-06T05:20:54.614Z,99.90
2018-04-06T05:23:22.216Z,99.90
2018-04-06T05:25:50.622Z,99.90
2018-04-06T05:28:18.187Z,99.90
2018-04-06T05:30:45.741Z,99.90
2018-04-06T05:33:13.313Z,99.90
2018-04-06T05:35:40.866Z,99.90
2018-04-06T05:38:08.453Z,99.90
2018-04-06T05:40:36.013Z,99.90
2018-04-06T05:43:03.586Z,99.90
2018-04-06T05:45:31.161Z,99.90
2018-04-06T05:47:58.713Z,99.90
2018-04-06T05:50:26.305Z,99.90
2018-04-06T05:52:53.864Z,99.90
2018-04-06T05:55:21.418Z,99.90
2018-04-06T05:57:49.772Z,99.90
2018-04-06T06:00:17.389Z,99.90
2018-04-06T06:02:44.945Z,99.90
2018-04-06T06:05:12.525Z,99.90
2018-04-06T06:07:40.105Z,99.90
2018-04-06T06:10:07.750Z,99.90
2018-04-06T06:12:35.369Z,99.90
2018-04-06T06:15:02.950Z,99.90
2018-04-06T06:17:30.546Z,99.90
2018-04-06T06:19:58.117Z,99.90
2018-04-06T06:22:25.670Z,99.90
2018-04-06T06:24:53.231Z,99.90
2018-04-06T06:27:20.827Z,99.90
2018-04-06T06:29:49.158Z,99.90
2018-04-06T06:32:16.804Z,99.90
2018-04-06T06:34:44.300Z,99.90
2018-04-06T06:37:11.866Z,99.90
2018-04-06T06:39:39.477Z,99.90
2018-04-06T06:42:07.042Z,99.90
2018-04-06T06:44:34.618Z,99.90
2018-04-06T06:47:02.219Z,99.90
2018-04-06T06:49:29.781Z,99.90
2018-04-06T06:51:57.361Z,99.90
2018-04-06T06:54:25.731Z,99.90
2018-04-06T06:56:54.071Z,99.90
2018-04-06T06:59:21.651Z,99.90
2018-04-06T07:01:49.212Z,99.90
2018-04-06T07:04:16.791Z,99.90
2018-04-06T07:06:45.144Z,99.90
2018-04-06T07:09:12.745Z,99.90
2018-04-06T07:11:41.076Z,99.90
2018-04-06T07:14:08.704Z,99.90
2018-04-06T07:16:36.339Z,99.90
2018-04-06T07:19:04.682Z,99.90
2018-04-06T07:21:32.258Z,99.90
2018-04-06T07:23:59.819Z,96.20
2018-04-06T07:26:27.452Z,96.50
2018-04-06T07:28:55.034Z,94.00
2018-04-06T07:31:22.645Z,92.10
2018-04-06T07:33:50.243Z,86.90
2018-04-06T07:36:17.830Z,86.90
2018-04-06T07:38:45.417Z,87.90
2018-04-06T07:41:13.755Z,80.80
2018-04-06T07:43:41.317Z,80.60
2018-04-06T07:46:08.902Z,74.00
2018-04-06T07:48:37.244Z,68.50
2018-04-06T07:51:04.920Z,68.50
2018-04-06T07:53:32.489Z,64.50
2018-04-06T07:56:00.106Z,68.10
2018-04-06T07:58:27.668Z,65.70
2018-04-06T08:00:55.261Z,59.40
2018-04-06T08:03:22.936Z,63.40
2018-04-06T08:05:50.548Z,61.50
2018-04-06T08:08:18.137Z,61.60
2018-04-06T08:10:45.734Z,63.20
2018-04-06T08:13:14.150Z,59.90
2018-04-06T08:15:42.509Z,56.10
2018-04-06T08:18:10.861Z,53.90
2018-04-06T08:20:38.446Z,53.80
2018-04-06T08:23:06.830Z,52.50
2018-04-06T08:25:35.165Z,51.60
2018-04-06T08:28:02.757Z,51.40
2018-04-06T08:30:31.086Z,46.70
2018-04-06T08:32:58.659Z,46.60
2018-04-06T08:35:26.237Z,47.60
2018-04-06T08:37:53.806Z,45.20
2018-04-06T08:40:21.374Z,44.40
2018-04-06T08:42:49.747Z,45.50
2018-04-06T08:45:17.307Z,45.50
2018-04-06T08:47:44.928Z,45.00
2018-04-06T08:50:12.498Z,45.70
2018-04-06T08:52:40.361Z,47.40
2018-04-06T08:55:07.926Z,43.40
2018-04-06T08:57:35.510Z,41.30
2018-04-06T09:00:03.075Z,42.10
2018-04-06T09:02:30.641Z,41.00
2018-04-06T09:04:58.234Z,39.00
2018-04-06T09:07:25.812Z,39.70
2018-04-06T09:09:53.434Z,37.70
2018-04-06T09:12:21.778Z,38.70
2018-04-06T09:14:49.352Z,38.50
2018-04-06T09:17:16.952Z,37.40
2018-04-06T09:19:44.546Z,38.50
2018-04-06T09:22:12.129Z,38.00
2018-04-06T09:24:39.803Z,37.90
2018-04-06T09:27:07.374Z,35.90
2018-04-06T09:29:34.997Z,38.00
2018-04-06T09:32:02.566Z,38.30
2018-04-06T09:34:30.163Z,37.60
2018-04-06T09:36:57.847Z,36.60
2018-04-06T09:39:26.326Z,36.50
2018-04-06T09:41:54.666Z,36.60
2018-04-06T09:44:22.289Z,36.60
2018-04-06T09:46:49.862Z,37.60
2018-04-06T09:49:17.464Z,37.60
2018-04-06T09:51:45.033Z,37.50
2018-04-06T09:54:13.387Z,34.60
2018-04-06T09:56:41.011Z,34.60
2018-04-06T09:59:08.591Z,34.30
2018-04-06T10:01:36.942Z,35.90
2018-04-06T10:04:04.509Z,35.80
2018-04-06T10:06:32.138Z,37.30
2018-04-06T10:09:00.967Z,38.30
2018-04-06T10:11:28.553Z,38.30
2018-04-06T10:13:56.121Z,37.90
2018-04-06T10:16:23.708Z,35.70
2018-04-06T10:18:51.265Z,36.20
2018-04-06T10:21:18.904Z,37.40
2018-04-06T10:23:46.482Z,37.70
2018-04-06T10:26:14.045Z,38.00
2018-04-06T10:28:41.621Z,37.40
2018-04-06T10:31:13.457Z,38.90
2018-04-06T10:33:41.034Z,38.80
2018-04-06T10:36:08.660Z,38.50
2018-04-06T10:38:37.019Z,41.20
2018-04-06T10:41:04.607Z,41.20
2018-04-06T10:43:32.197Z,37.60
2018-04-06T10:45:59.794Z,37.10
2018-04-06T10:48:27.369Z,39.20
2018-04-06T10:50:54.947Z,35.00
2018-04-06T10:53:22.602Z,35.40
2018-04-06T10:55:50.885Z,34.80
2018-04-06T10:58:18.496Z,34.70
2018-04-06T11:00:46.853Z,36.60
2018-04-06T11:03:14.438Z,36.50
2018-04-06T11:05:42.778Z,37.50
2018-04-06T11:08:10.383Z,37.40
2018-04-06T11:10:38.754Z,36.00
2018-04-06T11:13:07.147Z,37.10
2018-04-06T11:15:34.734Z,37.00
2018-04-06T11:18:02.379Z,36.90
2018-04-06T11:20:29.893Z,37.20
2018-04-06T11:22:57.457Z,35.50
2018-04-06T11:25:25.114Z,37.80
2018-04-06T11:27:52.735Z,34.40
2018-04-06T11:30:20.318Z,33.50
2018-04-06T11:32:47.903Z,34.50
2018-04-06T11:35:15.499Z,34.70
2018-04-06T11:37:43.085Z,34.00
2018-04-06T11:40:10.652Z,34.80
2018-04-06T11:42:38.252Z,34.40
2018-04-06T11:45:05.842Z,34.20
2018-04-06T11:47:33.454Z,36.00
2018-04-06T11:50:01.023Z,34.40
2018-04-06T11:52:28.597Z,33.10
2018-04-06T11:54:57.475Z,33.90
2018-04-06T11:57:25.058Z,34.40
2018-04-06T11:59:52.636Z,35.70
2018-04-06T12:02:21.058Z,33.50
2018-04-06T12:04:48.616Z,33.30
2018-04-06T12:07:16.191Z,34.30
2018-04-06T12:09:43.756Z,33.40
2018-04-06T12:12:11.345Z,33.10
2018-04-06T12:14:39.691Z,35.00
2018-04-06T12:17:07.329Z,34.80
2018-04-06T12:19:34.963Z,35.40
2018-04-06T12:22:03.326Z,36.90
2018-04-06T12:24:31.706Z,34.80
2018-04-06T12:26:59.316Z,34.10
2018-04-06T12:29:26.993Z,34.10
2018-04-06T12:31:54.553Z,32.80
2018-04-06T12:34:22.150Z,33.10
2018-04-06T12:36:50.553Z,35.10
2018-04-06T12:39:18.134Z,34.90
2018-04-06T12:41:45.691Z,34.50
2018-04-06T12:44:13.305Z,33.60
2018-04-06T12:46:40.866Z,34.20
2018-04-06T12:49:08.502Z,34.30
2018-04-06T12:51:36.074Z,32.00
2018-04-06T12:54:03.678Z,32.80
2018-04-06T12:56:32.006Z,33.10
2018-04-06T12:58:59.601Z,33.00
2018-04-06T13:01:27.170Z,32.80
2018-04-06T13:03:55.530Z,34.60
2018-04-06T13:06:23.109Z,34.50
2018-04-06T13:08:51.461Z,33.20
2018-04-06T13:11:19.060Z,33.20
2018-04-06T13:13:47.411Z,32.40
2018-04-06T13:16:15.011Z,32.30
2018-04-06T13:18:42.582Z,33.90
2018-04-06T13:21:10.193Z,33.20
2018-04-06T13:23:37.753Z,32.30
2018-04-06T13:26:05.455Z,31.10
2018-04-06T13:28:33.767Z,32.90
2018-04-06T13:31:02.170Z,32.80
2018-04-06T13:33:29.733Z,33.10
2018-04-06T13:35:57.332Z,32.60
2018-04-06T13:38:24.932Z,33.70
2018-04-06T13:40:52.525Z,32.40
2018-04-06T13:43:20.087Z,32.80
2018-04-06T13:45:47.684Z,32.70
2018-04-06T13:48:16.055Z,32.80
2018-04-06T13:50:44.390Z,32.70
2018-04-06T13:53:12.049Z,32.70
2018-04-06T13:55:39.663Z,35.50
2018-04-06T13:58:07.993Z,33.00
2018-04-06T14:00:35.566Z,32.80
2018-04-06T14:03:03.357Z,30.60
2018-04-06T14:05:31.718Z,30.40
2018-04-06T14:07:59.286Z,30.30
2018-04-06T14:10:27.628Z,31.60
2018-04-06T14:12:55.211Z,31.50
2018-04-06T14:15:22.790Z,32.10
2018-04-06T14:17:51.163Z,30.70
2018-04-06T14:20:18.707Z,30.70
2018-04-06T14:22:46.305Z,32.40
2018-04-06T14:25:14.888Z,31.80
2018-04-06T14:27:43.230Z,32.10
2018-04-06T14:30:10.807Z,32.10
2018-04-06T14:32:38.369Z,32.10
2018-04-06T14:35:05.972Z,31.40
2018-04-06T14:37:33.549Z,30.50
2018-04-06T14:40:01.134Z,32.50
2018-04-06T14:42:28.685Z,31.20
2018-04-06T14:44:56.256Z,32.30
2018-04-06T14:47:24.606Z,33.30
2018-04-06T14:49:52.217Z,33.20
2018-04-06T14:52:19.800Z,34.40
2018-04-06T14:54:47.362Z,34.70
2018-04-06T14:57:14.942Z,36.40
2018-04-06T14:59:42.505Z,35.40
2018-04-06T15:02:10.094Z,35.30
2018-04-06T15:04:37.672Z,34.80
2018-04-06T15:07:05.272Z,34.80
2018-04-06T15:09:34.489Z,36.30
2018-04-06T15:12:02.062Z,36.20
2018-04-06T15:14:29.616Z,36.00
2018-04-06T15:16:57.252Z,35.50
2018-04-06T15:19:24.857Z,34.70
2018-04-06T15:21:52.430Z,34.80
2018-04-06T15:24:19.983Z,34.00
2018-04-06T15:26:47.565Z,33.90
2018-04-06T15:29:15.150Z,35.00
2018-04-06T15:31:42.726Z,36.20
2018-04-06T15:34:10.318Z,36.60
2018-04-06T15:36:37.905Z,34.80
2018-04-06T15:39:06.410Z,35.50
2018-04-06T15:41:34.749Z,37.60
2018-04-06T15:44:02.553Z,37.50
2018-04-06T15:46:30.918Z,35.10
2018-04-06T15:48:58.501Z,35.00
2018-04-06T15:51:26.850Z,35.70
2018-04-06T15:53:54.459Z,35.60
2018-04-06T15:56:22.030Z,35.90
2018-04-06T15:58:49.618Z,36.10
2018-04-06T16:01:17.194Z,36.10
2018-04-06T16:03:44.794Z,35.40
2018-04-06T16:06:12.369Z,35.60
2018-04-06T16:08:39.973Z,35.10
2018-04-06T16:11:07.554Z,35.50
2018-04-06T16:13:35.868Z,35.40
2018-04-06T16:16:03.446Z,35.30
2018-04-06T16:18:31.048Z,35.90
2018-04-06T16:20:58.631Z,35.80
2018-04-06T16:23:26.273Z,37.10
2018-04-06T16:25:54.641Z,37.80
2018-04-06T16:28:22.205Z,37.10
2018-04-06T16:30:49.845Z,36.70
2018-04-06T16:33:17.428Z,37.40
2018-04-06T16:35:45.006Z,37.50
2018-04-06T16:38:13.334Z,36.90
2018-04-06T16:40:40.936Z,36.80
2018-04-06T16:43:09.312Z,38.20
2018-04-06T16:45:36.875Z,38.20
2018-04-06T16:48:04.445Z,37.90
2018-04-06T16:50:32.841Z,39.90
2018-04-06T16:53:00.460Z,39.80
2018-04-06T16:55:28.387Z,39.30
2018-04-06T16:57:55.956Z,39.80
2018-04-06T17:00:23.522Z,39.40
2018-04-06T17:02:51.865Z,39.00
2018-04-06T17:05:20.196Z,39.00
2018-04-06T17:07:48.647Z,39.00
2018-04-06T17:10:16.200Z,39.80
2018-04-06T17:12:43.789Z,40.20
2018-04-06T17:15:11.501Z,39.30
2018-04-06T17:17:39.859Z,39.40
2018-04-06T17:20:07.480Z,38.70
2018-04-06T17:22:35.058Z,39.30
2018-04-06T17:25:02.652Z,40.40
2018-04-06T17:27:30.233Z,40.70
2018-04-06T17:29:58.578Z,40.40
2018-04-06T17:32:26.151Z,40.20
2018-04-06T17:34:53.732Z,40.10
2018-04-06T17:37:22.053Z,40.70
2018-04-06T17:39:50.385Z,40.70
2018-04-06T17:42:18.751Z,41.40
2018-04-06T17:44:46.332Z,41.40
2018-04-06T17:47:14.675Z,41.70
2018-04-06T17:49:42.274Z,41.60
2018-04-06T17:52:10.591Z,42.10
2018-04-06T17:54:38.233Z,42.00
2018-04-06T17:57:05.801Z,42.10
2018-04-06T17:59:33.407Z,42.60
2018-04-06T18:02:00.959Z,42.60
2018-04-06T18:04:28.514Z,42.50
2018-04-06T18:06:56.107Z,42.60
2018-04-06T18:09:24.492Z,43.20
2018-04-06T18:11:52.068Z,43.20
2018-04-06T18:14:20.399Z,43.80
2018-04-06T18:16:47.993Z,43.10
2018-04-06T18:19:16.413Z,43.60
2018-04-06T18:21:44.040Z,43.60
2018-04-06T18:24:12.388Z,44.40
2018-04-06T18:26:39.961Z,44.30
2018-04-06T18:29:07.545Z,44.40
2018-04-06T18:31:35.920Z,45.10
2018-04-06T18:34:04.263Z,45.40
2018-04-06T18:36:31.877Z,45.40
2018-04-06T18:38:59.453Z,46.20
2018-04-06T18:41:27.118Z,45.30
2018-04-06T18:43:56.049Z,46.20
2018-04-06T18:46:23.677Z,45.60
2018-04-06T18:48:51.307Z,45.60
2018-04-06T18:51:19.647Z,45.80
2018-04-06T18:53:47.312Z,45.80
2018-04-06T18:56:14.893Z,45.80
2018-04-06T18:58:43.268Z,46.00
2018-04-06T19:01:10.845Z,46.00
2018-04-06T19:03:39.206Z,46.00
2018-04-06T19:06:06.836Z,45.90
2018-04-06T19:08:34.455Z,45.90
2018-04-06T19:11:02.814Z,46.00
2018-04-06T19:13:31.045Z,46.00
2018-04-06T19:15:58.655Z,46.20
2018-04-06T19:18:26.255Z,46.30
2018-04-06T19:20:53.851Z,46.30
2018-04-06T19:23:21.476Z,46.60
2018-04-06T19:25:49.060Z,46.70
2018-04-06T19:28:16.694Z,47.40
2018-04-06T19:30:44.314Z,47.40
2018-04-06T19:33:11.935Z,47.60
2018-04-06T19:35:40.261Z,48.70
2018-04-06T19:38:08.694Z,49.00
2018-04-06T19:40:36.383Z,49.00
2018-04-06T19:43:03.957Z,49.40
2018-04-06T19:45:31.551Z,49.40
2018-04-06T19:47:59.874Z,49.80
2018-04-06T19:50:27.501Z,49.80
2018-04-06T19:52:55.066Z,50.00
2018-04-06T19:55:22.666Z,50.10
2018-04-06T19:57:50.246Z,50.20
2018-04-06T20:00:17.818Z,50.70
2018-04-06T20:02:46.167Z,51.50
2018-04-06T20:05:13.736Z,51.40
2018-04-06T20:07:42.075Z,51.50
2018-04-06T20:10:09.733Z,51.90
2018-04-06T20:12:37.299Z,52.00
2018-04-06T20:15:04.878Z,52.30
2018-04-06T20:17:32.501Z,52.70
2018-04-06T20:20:00.871Z,53.30
2018-04-06T20:22:29.240Z,53.80
2018-04-06T20:24:57.636Z,54.10
2018-04-06T20:27:25.981Z,54.80
2018-04-06T20:29:53.614Z,54.70
2018-04-06T20:32:21.213Z,54.70
2018-04-06T20:34:48.798Z,55.00
2018-04-06T20:37:17.301Z,55.70
2018-04-06T20:39:44.861Z,55.70
2018-04-06T20:42:12.461Z,56.40
2018-04-06T20:44:40.047Z,56.10
2018-04-06T20:47:08.417Z,58.20
2018-04-06T20:49:36.011Z,57.50
2018-04-06T20:52:04.369Z,59.10
2018-04-06T20:54:31.948Z,59.10
2018-04-06T20:56:59.524Z,61.10
2018-04-06T20:59:27.139Z,63.10
2018-04-06T21:01:54.698Z,68.40
2018-04-06T21:04:22.311Z,72.20
2018-04-06T21:06:49.876Z,74.40
2018-04-06T21:09:17.471Z,76.90
2018-04-06T21:11:45.042Z,80.10
2018-04-06T21:14:12.610Z,81.60
2018-04-06T21:16:40.176Z,86.00
2018-04-06T21:19:07.819Z,88.90
2018-04-06T21:21:35.371Z,91.00
2018-04-06T21:24:02.954Z,92.30
2018-04-06T21:26:31.017Z,93.30
2018-04-06T21:28:58.586Z,95.00
2018-04-06T21:31:26.177Z,95.20
2018-04-06T21:33:53.748Z,97.00
2018-04-06T21:36:21.330Z,99.20
2018-04-06T21:38:48.914Z,99.90
2018-04-06T21:41:16.528Z,99.90
2018-04-06T21:43:44.105Z,99.90
2018-04-06T21:46:11.703Z,99.90
2018-04-06T21:48:39.263Z,99.90
2018-04-06T21:51:06.862Z,99.90
2018-04-06T21:53:34.438Z,99.90
2018-04-06T21:56:02.027Z,99.70
2018-04-06T21:58:29.582Z,98.10
2018-04-06T22:00:57.239Z,95.80
2018-04-06T22:03:24.805Z,94.70
2018-04-06T22:05:52.388Z,94.30
2018-04-06T22:08:19.946Z,93.00
2018-04-06T22:10:47.510Z,92.30
2018-04-06T22:13:15.042Z,92.40
2018-04-06T22:15:42.629Z,92.40
2018-04-06T22:18:10.229Z,93.40
2018-04-06T22:20:38.541Z,91.40
2018-04-06T22:23:06.231Z,91.30
2018-04-06T22:25:33.843Z,90.70
2018-04-06T22:28:01.444Z,90.50
2018-04-06T22:30:29.031Z,90.60
2018-04-06T22:32:56.622Z,90.70
2018-04-06T22:35:24.194Z,90.90
2018-04-06T22:37:51.793Z,92.00
2018-04-06T22:40:19.361Z,91.50
2018-04-06T22:42:46.961Z,92.20
2018-04-06T22:45:14.574Z,92.10
2018-04-06T22:47:42.198Z,93.70
2018-04-06T22:50:09.795Z,92.60
2018-04-06T22:52:37.362Z,93.20
2018-04-06T22:55:04.963Z,93.00
2018-04-06T22:57:33.294Z,94.00
2018-04-06T23:00:00.886Z,94.10
2018-04-06T23:02:28.438Z,95.30
2018-04-06T23:04:56.057Z,96.80
2018-04-06T23:07:23.615Z,99.90
2018-04-06T23:09:51.268Z,99.90
2018-04-06T23:12:18.831Z,99.90
2018-04-06T23:14:46.418Z,99.90
2018-04-06T23:17:14.000Z,99.90
2018-04-06T23:19:41.561Z,99.90
2018-04-06T23:22:09.130Z,99.90
2018-04-06T23:24:36.705Z,99.90
2018-04-06T23:27:04.301Z,99.90
2018-04-06T23:29:31.878Z,99.90
2018-04-06T23:31:59.487Z,99.90
2018-04-06T23:34:27.092Z,99.90
2018-04-06T23:36:55.415Z,99.90
2018-04-06T23:39:22.986Z,99.90
2018-04-06T23:41:50.562Z,99.90
2018-04-06T23:44:18.909Z,99.90
2018-04-06T23:46:46.514Z,99.90
2018-04-06T23:49:14.071Z,99.90
2018-04-06T23:51:42.500Z,99.90
2018-04-06T23:54:10.114Z,99.90
2018-04-06T23:56:37.718Z,99.90
2018-04-06T23:59:05.308Z,99.90
